sensor_id;sensor_type;location;lat;lon;timestamp;P1;durP1;ratioP1;P2;durP2;ratioP2
15929;SDS011;8064;51.142;4.780;2023-08-06T00:00:18;1.63;;;1.17;;
15929;SDS011;8064;51.142;4.780;2023-08-06T00:02:44;4.23;;;1.13;;
15929;SDS011;8064;51.142;4.780;2023-08-06T00:05:09;3.20;;;1.00;;
15929;SDS011;8064;51.142;4.780;2023-08-06T00:07:35;3.10;;;1.20;;
15929;SDS011;8064;51.142;4.780;2023-08-06T00:10:01;3.10;;;1.20;;
15929;SDS011;8064;51.142;4.780;2023-08-06T00:12:27;3.20;;;1.03;;
15929;SDS011;8064;51.142;4.780;2023-08-06T00:14:53;2.03;;;1.00;;
15929;SDS011;8064;51.142;4.780;2023-08-06T00:17:19;2.87;;;0.97;;
15929;SDS011;8064;51.142;4.780;2023-08-06T00:19:44;3.13;;;1.03;;
15929;SDS011;8064;51.142;4.780;2023-08-06T00:22:10;2.30;;;1.00;;
15929;SDS011;8064;51.142;4.780;2023-08-06T00:24:38;2.10;;;1.27;;
15929;SDS011;8064;51.142;4.780;2023-08-06T00:27:04;2.63;;;1.00;;
15929;SDS011;8064;51.142;4.780;2023-08-06T00:29:30;3.30;;;1.10;;
15929;SDS011;8064;51.142;4.780;2023-08-06T00:31:56;2.93;;;1.00;;
15929;SDS011;8064;51.142;4.780;2023-08-06T00:34:21;1.67;;;0.80;;
15929;SDS011;8064;51.142;4.780;2023-08-06T00:36:47;1.00;;;0.80;;
15929;SDS011;8064;51.142;4.780;2023-08-06T00:39:13;3.07;;;1.10;;
15929;SDS011;8064;51.142;4.780;2023-08-06T00:41:39;4.03;;;1.17;;
15929;SDS011;8064;51.142;4.780;2023-08-06T00:44:05;1.63;;;0.90;;
15929;SDS011;8064;51.142;4.780;2023-08-06T00:46:31;5.03;;;1.10;;
15929;SDS011;8064;51.142;4.780;2023-08-06T00:48:58;3.40;;;1.10;;
15929;SDS011;8064;51.142;4.780;2023-08-06T00:51:25;2.77;;;0.90;;
15929;SDS011;8064;51.142;4.780;2023-08-06T00:53:52;3.10;;;1.30;;
15929;SDS011;8064;51.142;4.780;2023-08-06T00:56:18;1.43;;;0.83;;
15929;SDS011;8064;51.142;4.780;2023-08-06T00:58:44;1.67;;;1.00;;
15929;SDS011;8064;51.142;4.780;2023-08-06T01:01:11;3.63;;;1.60;;
15929;SDS011;8064;51.142;4.780;2023-08-06T01:03:37;2.30;;;1.13;;
15929;SDS011;8064;51.142;4.780;2023-08-06T01:06:03;2.00;;;0.93;;
15929;SDS011;8064;51.142;4.780;2023-08-06T01:14:17;3.97;;;1.33;;
15929;SDS011;8064;51.142;4.780;2023-08-06T01:16:51;2.50;;;1.07;;
15929;SDS011;8064;51.142;4.780;2023-08-06T01:19:19;2.97;;;1.13;;
15929;SDS011;8064;51.142;4.780;2023-08-06T01:21:46;1.93;;;1.20;;
15929;SDS011;8064;51.142;4.780;2023-08-06T01:24:12;3.27;;;1.40;;
15929;SDS011;8064;51.142;4.780;2023-08-06T01:26:41;2.43;;;1.17;;
15929;SDS011;8064;51.142;4.780;2023-08-06T01:31:56;3.07;;;1.27;;
15929;SDS011;8064;51.142;4.780;2023-08-06T01:34:23;1.83;;;0.93;;
15929;SDS011;8064;51.142;4.780;2023-08-06T01:36:52;1.73;;;1.00;;
15929;SDS011;8064;51.142;4.780;2023-08-06T01:39:19;2.53;;;1.20;;
15929;SDS011;8064;51.142;4.780;2023-08-06T01:41:46;2.63;;;1.50;;
15929;SDS011;8064;51.142;4.780;2023-08-06T01:44:13;2.83;;;1.40;;
15929;SDS011;8064;51.142;4.780;2023-08-06T01:46:40;3.03;;;1.20;;
15929;SDS011;8064;51.142;4.780;2023-08-06T01:49:06;2.43;;;1.30;;
15929;SDS011;8064;51.142;4.780;2023-08-06T01:51:31;4.40;;;1.40;;
15929;SDS011;8064;51.142;4.780;2023-08-06T01:53:57;3.37;;;1.37;;
15929;SDS011;8064;51.142;4.780;2023-08-06T01:56:23;3.00;;;1.30;;
15929;SDS011;8064;51.142;4.780;2023-08-06T01:58:49;3.77;;;1.50;;
15929;SDS011;8064;51.142;4.780;2023-08-06T02:01:15;2.57;;;1.30;;
15929;SDS011;8064;51.142;4.780;2023-08-06T02:03:40;5.43;;;1.50;;
15929;SDS011;8064;51.142;4.780;2023-08-06T02:06:06;3.23;;;1.40;;
15929;SDS011;8064;51.142;4.780;2023-08-06T02:08:32;2.67;;;1.43;;
15929;SDS011;8064;51.142;4.780;2023-08-06T02:10:58;2.43;;;1.50;;
15929;SDS011;8064;51.142;4.780;2023-08-06T02:13:24;2.83;;;1.10;;
15929;SDS011;8064;51.142;4.780;2023-08-06T02:15:50;2.53;;;1.47;;
15929;SDS011;8064;51.142;4.780;2023-08-06T02:18:16;2.17;;;1.40;;
15929;SDS011;8064;51.142;4.780;2023-08-06T02:20:42;3.00;;;1.43;;
15929;SDS011;8064;51.142;4.780;2023-08-06T02:23:08;2.77;;;1.90;;
15929;SDS011;8064;51.142;4.780;2023-08-06T02:25:34;2.20;;;1.50;;
15929;SDS011;8064;51.142;4.780;2023-08-06T02:28:00;4.13;;;1.53;;
15929;SDS011;8064;51.142;4.780;2023-08-06T02:30:25;6.80;;;1.87;;
15929;SDS011;8064;51.142;4.780;2023-08-06T02:32:51;4.53;;;1.83;;
15929;SDS011;8064;51.142;4.780;2023-08-06T02:35:17;3.27;;;1.93;;
15929;SDS011;8064;51.142;4.780;2023-08-06T02:37:43;2.40;;;1.67;;
15929;SDS011;8064;51.142;4.780;2023-08-06T02:40:09;4.20;;;1.70;;
15929;SDS011;8064;51.142;4.780;2023-08-06T02:42:35;6.30;;;1.50;;
15929;SDS011;8064;51.142;4.780;2023-08-06T02:45:01;3.00;;;1.67;;
15929;SDS011;8064;51.142;4.780;2023-08-06T02:47:27;2.80;;;1.43;;
15929;SDS011;8064;51.142;4.780;2023-08-06T02:49:53;2.87;;;1.40;;
15929;SDS011;8064;51.142;4.780;2023-08-06T02:52:18;2.27;;;1.67;;
15929;SDS011;8064;51.142;4.780;2023-08-06T02:54:44;3.87;;;1.60;;
15929;SDS011;8064;51.142;4.780;2023-08-06T02:57:10;3.43;;;1.70;;
15929;SDS011;8064;51.142;4.780;2023-08-06T02:59:36;3.00;;;1.77;;
15929;SDS011;8064;51.142;4.780;2023-08-06T03:02:02;4.27;;;1.67;;
15929;SDS011;8064;51.142;4.780;2023-08-06T03:04:27;2.70;;;1.60;;
15929;SDS011;8064;51.142;4.780;2023-08-06T03:06:53;3.07;;;1.80;;
15929;SDS011;8064;51.142;4.780;2023-08-06T03:09:19;5.13;;;1.80;;
15929;SDS011;8064;51.142;4.780;2023-08-06T03:11:45;3.53;;;1.90;;
15929;SDS011;8064;51.142;4.780;2023-08-06T03:14:11;2.00;;;1.63;;
15929;SDS011;8064;51.142;4.780;2023-08-06T03:16:36;2.67;;;1.70;;
15929;SDS011;8064;51.142;4.780;2023-08-06T03:19:02;4.23;;;1.60;;
15929;SDS011;8064;51.142;4.780;2023-08-06T03:21:28;4.37;;;1.67;;
15929;SDS011;8064;51.142;4.780;2023-08-06T03:23:54;2.50;;;1.60;;
15929;SDS011;8064;51.142;4.780;2023-08-06T03:26:19;2.70;;;1.50;;
15929;SDS011;8064;51.142;4.780;2023-08-06T03:28:46;4.03;;;1.73;;
15929;SDS011;8064;51.142;4.780;2023-08-06T03:31:11;2.23;;;1.53;;
15929;SDS011;8064;51.142;4.780;2023-08-06T03:33:37;3.13;;;1.87;;
15929;SDS011;8064;51.142;4.780;2023-08-06T03:36:03;5.80;;;1.60;;
15929;SDS011;8064;51.142;4.780;2023-08-06T03:38:29;4.07;;;1.80;;
15929;SDS011;8064;51.142;4.780;2023-08-06T03:40:54;3.83;;;1.97;;
15929;SDS011;8064;51.142;4.780;2023-08-06T03:43:20;2.83;;;1.60;;
15929;SDS011;8064;51.142;4.780;2023-08-06T03:45:46;3.63;;;1.90;;
15929;SDS011;8064;51.142;4.780;2023-08-06T03:48:12;2.10;;;1.80;;
15929;SDS011;8064;51.142;4.780;2023-08-06T03:53:59;2.20;;;2.00;;
15929;SDS011;8064;51.142;4.780;2023-08-06T03:56:25;2.87;;;1.93;;
15929;SDS011;8064;51.142;4.780;2023-08-06T03:58:51;1.73;;;1.60;;
15929;SDS011;8064;51.142;4.780;2023-08-06T04:01:17;3.17;;;1.77;;
15929;SDS011;8064;51.142;4.780;2023-08-06T04:03:42;1.70;;;1.60;;
15929;SDS011;8064;51.142;4.780;2023-08-06T04:06:08;1.53;;;1.30;;
15929;SDS011;8064;51.142;4.780;2023-08-06T04:08:34;1.70;;;1.60;;
15929;SDS011;8064;51.142;4.780;2023-08-06T04:11:00;1.30;;;1.10;;
15929;SDS011;8064;51.142;4.780;2023-08-06T04:13:25;1.93;;;1.23;;
15929;SDS011;8064;51.142;4.780;2023-08-06T04:15:51;1.27;;;1.10;;
15929;SDS011;8064;51.142;4.780;2023-08-06T04:18:18;1.00;;;1.00;;
15929;SDS011;8064;51.142;4.780;2023-08-06T04:20:45;2.00;;;1.10;;
15929;SDS011;8064;51.142;4.780;2023-08-06T04:23:12;2.03;;;1.30;;
15929;SDS011;8064;51.142;4.780;2023-08-06T04:25:38;1.00;;;1.00;;
15929;SDS011;8064;51.142;4.780;2023-08-06T04:28:04;3.07;;;0.80;;
15929;SDS011;8064;51.142;4.780;2023-08-06T04:30:30;0.80;;;0.63;;
15929;SDS011;8064;51.142;4.780;2023-08-06T04:32:57;0.70;;;0.70;;
15929;SDS011;8064;51.142;4.780;2023-08-06T04:35:24;1.00;;;0.80;;
15929;SDS011;8064;51.142;4.780;2023-08-06T04:37:49;2.37;;;1.70;;
15929;SDS011;8064;51.142;4.780;2023-08-06T04:40:15;4.63;;;3.23;;
15929;SDS011;8064;51.142;4.780;2023-08-06T04:42:41;3.57;;;3.27;;
15929;SDS011;8064;51.142;4.780;2023-08-06T04:45:07;4.33;;;3.77;;
15929;SDS011;8064;51.142;4.780;2023-08-06T04:47:33;4.70;;;4.20;;
15929;SDS011;8064;51.142;4.780;2023-08-06T04:49:59;5.97;;;4.00;;
15929;SDS011;8064;51.142;4.780;2023-08-06T04:52:25;5.03;;;4.60;;
15929;SDS011;8064;51.142;4.780;2023-08-06T04:54:53;5.93;;;5.17;;
15929;SDS011;8064;51.142;4.780;2023-08-06T04:57:19;5.97;;;5.37;;
15929;SDS011;8064;51.142;4.780;2023-08-06T04:59:46;6.27;;;5.23;;
15929;SDS011;8064;51.142;4.780;2023-08-06T05:02:12;6.30;;;2.50;;
15929;SDS011;8064;51.142;4.780;2023-08-06T05:04:38;2.63;;;2.00;;
15929;SDS011;8064;51.142;4.780;2023-08-06T05:07:04;1.30;;;1.17;;
15929;SDS011;8064;51.142;4.780;2023-08-06T05:09:30;1.67;;;0.97;;
15929;SDS011;8064;51.142;4.780;2023-08-06T05:11:56;1.60;;;1.30;;
15929;SDS011;8064;51.142;4.780;2023-08-06T05:14:22;2.77;;;1.47;;
15929;SDS011;8064;51.142;4.780;2023-08-06T05:16:48;1.97;;;1.37;;
15929;SDS011;8064;51.142;4.780;2023-08-06T05:19:13;2.80;;;1.93;;
15929;SDS011;8064;51.142;4.780;2023-08-06T05:21:39;2.00;;;1.80;;
15929;SDS011;8064;51.142;4.780;2023-08-06T05:24:05;2.97;;;1.80;;
15929;SDS011;8064;51.142;4.780;2023-08-06T05:26:31;2.30;;;2.10;;
15929;SDS011;8064;51.142;4.780;2023-08-06T05:28:56;2.77;;;2.23;;
15929;SDS011;8064;51.142;4.780;2023-08-06T05:31:22;3.17;;;2.17;;
15929;SDS011;8064;51.142;4.780;2023-08-06T05:33:48;3.03;;;2.63;;
15929;SDS011;8064;51.142;4.780;2023-08-06T05:36:14;3.80;;;2.30;;
15929;SDS011;8064;51.142;4.780;2023-08-06T05:38:39;4.00;;;2.50;;
15929;SDS011;8064;51.142;4.780;2023-08-06T05:41:05;3.27;;;2.50;;
15929;SDS011;8064;51.142;4.780;2023-08-06T05:43:31;4.00;;;2.77;;
15929;SDS011;8064;51.142;4.780;2023-08-06T05:45:57;2.73;;;2.50;;
15929;SDS011;8064;51.142;4.780;2023-08-06T05:48:22;2.67;;;2.37;;
15929;SDS011;8064;51.142;4.780;2023-08-06T05:50:50;3.83;;;2.37;;
15929;SDS011;8064;51.142;4.780;2023-08-06T05:53:16;4.00;;;2.20;;
15929;SDS011;8064;51.142;4.780;2023-08-06T05:55:43;2.77;;;2.00;;
15929;SDS011;8064;51.142;4.780;2023-08-06T05:58:09;4.63;;;2.20;;
15929;SDS011;8064;51.142;4.780;2023-08-06T06:00:35;5.07;;;2.33;;
15929;SDS011;8064;51.142;4.780;2023-08-06T06:03:01;4.47;;;2.50;;
15929;SDS011;8064;51.142;4.780;2023-08-06T06:05:28;3.87;;;2.00;;
15929;SDS011;8064;51.142;4.780;2023-08-06T06:07:53;3.30;;;1.97;;
15929;SDS011;8064;51.142;4.780;2023-08-06T06:10:19;5.17;;;1.97;;
15929;SDS011;8064;51.142;4.780;2023-08-06T06:12:45;4.83;;;2.17;;
15929;SDS011;8064;51.142;4.780;2023-08-06T06:15:11;2.83;;;1.53;;
15929;SDS011;8064;51.142;4.780;2023-08-06T06:17:37;5.93;;;2.00;;
15929;SDS011;8064;51.142;4.780;2023-08-06T06:20:03;2.10;;;1.70;;
15929;SDS011;8064;51.142;4.780;2023-08-06T06:22:29;2.90;;;1.73;;
15929;SDS011;8064;51.142;4.780;2023-08-06T06:24:55;5.00;;;2.17;;
15929;SDS011;8064;51.142;4.780;2023-08-06T06:27:21;5.23;;;2.00;;
15929;SDS011;8064;51.142;4.780;2023-08-06T06:29:47;4.10;;;2.00;;
15929;SDS011;8064;51.142;4.780;2023-08-06T06:32:13;3.87;;;1.70;;
15929;SDS011;8064;51.142;4.780;2023-08-06T06:34:39;3.40;;;1.80;;
15929;SDS011;8064;51.142;4.780;2023-08-06T06:37:04;5.00;;;2.10;;
15929;SDS011;8064;51.142;4.780;2023-08-06T06:39:30;8.87;;;1.90;;
15929;SDS011;8064;51.142;4.780;2023-08-06T06:41:56;5.63;;;1.90;;
15929;SDS011;8064;51.142;4.780;2023-08-06T06:44:22;3.40;;;1.63;;
15929;SDS011;8064;51.142;4.780;2023-08-06T06:46:47;3.57;;;1.93;;
15929;SDS011;8064;51.142;4.780;2023-08-06T06:49:13;4.93;;;2.00;;
15929;SDS011;8064;51.142;4.780;2023-08-06T06:51:39;5.03;;;1.83;;
15929;SDS011;8064;51.142;4.780;2023-08-06T06:54:05;5.97;;;2.07;;
15929;SDS011;8064;51.142;4.780;2023-08-06T06:56:30;5.37;;;1.73;;
15929;SDS011;8064;51.142;4.780;2023-08-06T06:58:56;6.77;;;2.10;;
15929;SDS011;8064;51.142;4.780;2023-08-06T07:01:22;6.57;;;2.17;;
15929;SDS011;8064;51.142;4.780;2023-08-06T07:03:48;3.23;;;1.87;;
15929;SDS011;8064;51.142;4.780;2023-08-06T07:06:14;4.17;;;1.73;;
15929;SDS011;8064;51.142;4.780;2023-08-06T07:08:40;6.23;;;2.40;;
15929;SDS011;8064;51.142;4.780;2023-08-06T07:11:06;5.87;;;2.27;;
15929;SDS011;8064;51.142;4.780;2023-08-06T07:13:33;4.53;;;2.10;;
15929;SDS011;8064;51.142;4.780;2023-08-06T07:15:59;5.47;;;2.57;;
15929;SDS011;8064;51.142;4.780;2023-08-06T07:18:25;3.63;;;1.97;;
15929;SDS011;8064;51.142;4.780;2023-08-06T07:20:51;4.10;;;2.00;;
15929;SDS011;8064;51.142;4.780;2023-08-06T07:23:19;5.63;;;2.30;;
15929;SDS011;8064;51.142;4.780;2023-08-06T07:25:47;4.60;;;2.10;;
15929;SDS011;8064;51.142;4.780;2023-08-06T07:28:13;4.27;;;2.10;;
15929;SDS011;8064;51.142;4.780;2023-08-06T07:30:40;5.87;;;2.17;;
15929;SDS011;8064;51.142;4.780;2023-08-06T07:33:06;5.30;;;2.00;;
15929;SDS011;8064;51.142;4.780;2023-08-06T07:35:32;6.33;;;2.40;;
15929;SDS011;8064;51.142;4.780;2023-08-06T07:37:58;6.03;;;1.80;;
15929;SDS011;8064;51.142;4.780;2023-08-06T07:40:24;3.93;;;1.63;;
15929;SDS011;8064;51.142;4.780;2023-08-06T07:42:50;4.53;;;1.80;;
15929;SDS011;8064;51.142;4.780;2023-08-06T07:45:15;6.07;;;1.80;;
15929;SDS011;8064;51.142;4.780;2023-08-06T07:47:41;4.77;;;1.50;;
15929;SDS011;8064;51.142;4.780;2023-08-06T07:50:08;4.40;;;1.60;;
15929;SDS011;8064;51.142;4.780;2023-08-06T07:52:34;3.87;;;1.63;;
15929;SDS011;8064;51.142;4.780;2023-08-06T07:55:00;4.67;;;1.60;;
15929;SDS011;8064;51.142;4.780;2023-08-06T07:57:30;4.43;;;1.33;;
15929;SDS011;8064;51.142;4.780;2023-08-06T07:59:56;7.73;;;1.70;;
15929;SDS011;8064;51.142;4.780;2023-08-06T08:02:22;9.37;;;2.33;;
15929;SDS011;8064;51.142;4.780;2023-08-06T08:04:48;8.57;;;1.80;;
15929;SDS011;8064;51.142;4.780;2023-08-06T08:07:14;8.83;;;1.83;;
15929;SDS011;8064;51.142;4.780;2023-08-06T08:09:39;7.03;;;1.33;;
15929;SDS011;8064;51.142;4.780;2023-08-06T08:12:05;8.23;;;1.50;;
15929;SDS011;8064;51.142;4.780;2023-08-06T08:14:31;8.30;;;1.53;;
15929;SDS011;8064;51.142;4.780;2023-08-06T08:17:12;7.23;;;1.53;;
15929;SDS011;8064;51.142;4.780;2023-08-06T08:19:39;7.20;;;1.67;;
15929;SDS011;8064;51.142;4.780;2023-08-06T08:22:05;7.30;;;1.80;;
15929;SDS011;8064;51.142;4.780;2023-08-06T08:24:31;8.63;;;2.07;;
15929;SDS011;8064;51.142;4.780;2023-08-06T08:26:57;6.93;;;1.77;;
15929;SDS011;8064;51.142;4.780;2023-08-06T08:29:23;7.07;;;2.00;;
15929;SDS011;8064;51.142;4.780;2023-08-06T08:31:49;6.37;;;1.70;;
15929;SDS011;8064;51.142;4.780;2023-08-06T08:34:16;8.13;;;1.77;;
15929;SDS011;8064;51.142;4.780;2023-08-06T08:36:42;5.73;;;1.50;;
15929;SDS011;8064;51.142;4.780;2023-08-06T08:39:08;5.87;;;1.73;;
15929;SDS011;8064;51.142;4.780;2023-08-06T08:41:35;5.53;;;1.60;;
15929;SDS011;8064;51.142;4.780;2023-08-06T08:44:02;9.00;;;1.30;;
15929;SDS011;8064;51.142;4.780;2023-08-06T08:46:29;7.10;;;1.80;;
15929;SDS011;8064;51.142;4.780;2023-08-06T08:48:58;4.47;;;1.03;;
15929;SDS011;8064;51.142;4.780;2023-08-06T08:51:27;3.90;;;1.30;;
15929;SDS011;8064;51.142;4.780;2023-08-06T08:53:53;7.63;;;1.60;;
15929;SDS011;8064;51.142;4.780;2023-08-06T08:56:32;4.97;;;1.47;;
15929;SDS011;8064;51.142;4.780;2023-08-06T08:58:59;8.53;;;1.50;;
15929;SDS011;8064;51.142;4.780;2023-08-06T09:01:27;5.97;;;1.60;;
15929;SDS011;8064;51.142;4.780;2023-08-06T09:03:54;5.13;;;1.47;;
15929;SDS011;8064;51.142;4.780;2023-08-06T09:06:21;6.07;;;1.93;;
15929;SDS011;8064;51.142;4.780;2023-08-06T09:08:51;8.30;;;1.70;;
15929;SDS011;8064;51.142;4.780;2023-08-06T09:11:24;5.73;;;1.40;;
15929;SDS011;8064;51.142;4.780;2023-08-06T09:13:51;7.10;;;1.33;;
15929;SDS011;8064;51.142;4.780;2023-08-06T09:16:19;3.47;;;1.20;;
15929;SDS011;8064;51.142;4.780;2023-08-06T09:18:45;5.00;;;1.33;;
15929;SDS011;8064;51.142;4.780;2023-08-06T09:21:14;6.33;;;1.80;;
15929;SDS011;8064;51.142;4.780;2023-08-06T09:23:41;7.30;;;1.60;;
15929;SDS011;8064;51.142;4.780;2023-08-06T09:26:07;4.80;;;1.20;;
15929;SDS011;8064;51.142;4.780;2023-08-06T09:28:37;8.20;;;1.70;;
15929;SDS011;8064;51.142;4.780;2023-08-06T09:31:04;8.00;;;1.83;;
15929;SDS011;8064;51.142;4.780;2023-08-06T09:33:30;9.93;;;2.07;;
15929;SDS011;8064;51.142;4.780;2023-08-06T09:35:55;5.43;;;1.23;;
15929;SDS011;8064;51.142;4.780;2023-08-06T09:38:21;4.97;;;1.43;;
15929;SDS011;8064;51.142;4.780;2023-08-06T09:40:47;6.80;;;1.63;;
15929;SDS011;8064;51.142;4.780;2023-08-06T09:43:13;7.33;;;1.30;;
15929;SDS011;8064;51.142;4.780;2023-08-06T09:45:39;5.23;;;1.77;;
15929;SDS011;8064;51.142;4.780;2023-08-06T09:48:05;8.03;;;1.30;;
15929;SDS011;8064;51.142;4.780;2023-08-06T09:50:33;3.23;;;1.10;;
15929;SDS011;8064;51.142;4.780;2023-08-06T09:53:02;4.63;;;1.13;;
15929;SDS011;8064;51.142;4.780;2023-08-06T09:55:28;4.20;;;1.33;;
15929;SDS011;8064;51.142;4.780;2023-08-06T09:57:55;3.83;;;1.00;;
15929;SDS011;8064;51.142;4.780;2023-08-06T10:00:22;4.70;;;1.20;;
15929;SDS011;8064;51.142;4.780;2023-08-06T10:02:48;7.27;;;1.27;;
15929;SDS011;8064;51.142;4.780;2023-08-06T10:05:16;4.43;;;1.13;;
15929;SDS011;8064;51.142;4.780;2023-08-06T10:07:43;2.60;;;0.90;;
15929;SDS011;8064;51.142;4.780;2023-08-06T10:10:10;3.13;;;0.87;;
15929;SDS011;8064;51.142;4.780;2023-08-06T10:12:37;3.57;;;1.20;;
15929;SDS011;8064;51.142;4.780;2023-08-06T10:15:08;5.07;;;1.10;;
15929;SDS011;8064;51.142;4.780;2023-08-06T10:17:35;3.70;;;1.30;;
15929;SDS011;8064;51.142;4.780;2023-08-06T10:20:04;4.27;;;1.60;;
15929;SDS011;8064;51.142;4.780;2023-08-06T10:22:32;5.93;;;1.20;;
15929;SDS011;8064;51.142;4.780;2023-08-06T10:24:59;3.87;;;1.80;;
15929;SDS011;8064;51.142;4.780;2023-08-06T10:27:32;6.53;;;1.30;;
15929;SDS011;8064;51.142;4.780;2023-08-06T10:33:02;3.27;;;1.60;;
15929;SDS011;8064;51.142;4.780;2023-08-06T10:40:43;3.20;;;1.00;;
15929;SDS011;8064;51.142;4.780;2023-08-06T10:43:26;3.07;;;0.90;;
15929;SDS011;8064;51.142;4.780;2023-08-06T10:45:52;4.33;;;1.00;;
15929;SDS011;8064;51.142;4.780;2023-08-06T10:51:01;4.00;;;1.00;;
15929;SDS011;8064;51.142;4.780;2023-08-06T10:53:27;3.90;;;1.50;;
15929;SDS011;8064;51.142;4.780;2023-08-06T10:55:53;4.97;;;1.10;;
15929;SDS011;8064;51.142;4.780;2023-08-06T10:58:19;5.97;;;1.17;;
15929;SDS011;8064;51.142;4.780;2023-08-06T11:00:45;7.87;;;1.00;;
15929;SDS011;8064;51.142;4.780;2023-08-06T11:03:11;5.27;;;1.00;;
15929;SDS011;8064;51.142;4.780;2023-08-06T11:05:37;4.70;;;1.20;;
15929;SDS011;8064;51.142;4.780;2023-08-06T11:08:03;7.30;;;1.30;;
15929;SDS011;8064;51.142;4.780;2023-08-06T11:10:29;5.43;;;0.93;;
15929;SDS011;8064;51.142;4.780;2023-08-06T11:13:00;6.97;;;1.37;;
15929;SDS011;8064;51.142;4.780;2023-08-06T11:15:27;6.37;;;1.13;;
15929;SDS011;8064;51.142;4.780;2023-08-06T11:17:55;6.97;;;1.20;;
15929;SDS011;8064;51.142;4.780;2023-08-06T11:20:20;5.30;;;1.07;;
15929;SDS011;8064;51.142;4.780;2023-08-06T11:22:47;3.80;;;1.30;;
15929;SDS011;8064;51.142;4.780;2023-08-06T11:25:13;3.37;;;1.30;;
15929;SDS011;8064;51.142;4.780;2023-08-06T11:27:39;3.40;;;1.03;;
15929;SDS011;8064;51.142;4.780;2023-08-06T11:30:05;2.87;;;1.10;;
15929;SDS011;8064;51.142;4.780;2023-08-06T11:32:31;3.37;;;0.70;;
15929;SDS011;8064;51.142;4.780;2023-08-06T11:34:58;4.17;;;1.00;;
15929;SDS011;8064;51.142;4.780;2023-08-06T11:37:24;2.70;;;1.00;;
15929;SDS011;8064;51.142;4.780;2023-08-06T11:39:50;6.13;;;1.13;;
15929;SDS011;8064;51.142;4.780;2023-08-06T11:42:16;2.27;;;0.77;;
15929;SDS011;8064;51.142;4.780;2023-08-06T11:44:42;4.60;;;0.97;;
15929;SDS011;8064;51.142;4.780;2023-08-06T11:47:24;3.50;;;0.90;;
15929;SDS011;8064;51.142;4.780;2023-08-06T11:49:49;4.23;;;0.83;;
15929;SDS011;8064;51.142;4.780;2023-08-06T11:54:44;3.10;;;0.87;;
15929;SDS011;8064;51.142;4.780;2023-08-06T11:57:11;3.30;;;0.90;;
15929;SDS011;8064;51.142;4.780;2023-08-06T11:59:38;5.33;;;0.90;;
15929;SDS011;8064;51.142;4.780;2023-08-06T12:02:05;3.87;;;1.00;;
15929;SDS011;8064;51.142;4.780;2023-08-06T12:07:37;4.53;;;1.40;;
15929;SDS011;8064;51.142;4.780;2023-08-06T12:10:03;4.67;;;1.30;;
15929;SDS011;8064;51.142;4.780;2023-08-06T12:12:30;3.73;;;1.10;;
15929;SDS011;8064;51.142;4.780;2023-08-06T12:14:56;2.90;;;1.10;;
15929;SDS011;8064;51.142;4.780;2023-08-06T12:17:22;3.90;;;1.10;;
15929;SDS011;8064;51.142;4.780;2023-08-06T12:19:49;2.83;;;1.13;;
15929;SDS011;8064;51.142;4.780;2023-08-06T12:22:15;4.20;;;1.50;;
15929;SDS011;8064;51.142;4.780;2023-08-06T12:24:42;3.40;;;0.97;;
15929;SDS011;8064;51.142;4.780;2023-08-06T12:27:09;3.83;;;1.30;;
15929;SDS011;8064;51.142;4.780;2023-08-06T12:29:36;3.17;;;1.13;;
15929;SDS011;8064;51.142;4.780;2023-08-06T12:32:05;5.33;;;1.27;;
15929;SDS011;8064;51.142;4.780;2023-08-06T12:34:31;5.20;;;1.33;;
15929;SDS011;8064;51.142;4.780;2023-08-06T12:36:57;2.97;;;0.87;;
15929;SDS011;8064;51.142;4.780;2023-08-06T12:39:23;5.73;;;1.23;;
15929;SDS011;8064;51.142;4.780;2023-08-06T12:41:49;7.07;;;1.30;;
15929;SDS011;8064;51.142;4.780;2023-08-06T12:44:15;4.60;;;1.03;;
15929;SDS011;8064;51.142;4.780;2023-08-06T12:46:40;3.83;;;1.00;;
15929;SDS011;8064;51.142;4.780;2023-08-06T12:49:06;5.00;;;1.10;;
15929;SDS011;8064;51.142;4.780;2023-08-06T12:51:32;4.70;;;1.13;;
15929;SDS011;8064;51.142;4.780;2023-08-06T12:53:59;3.60;;;1.10;;
15929;SDS011;8064;51.142;4.780;2023-08-06T12:56:24;4.37;;;1.20;;
15929;SDS011;8064;51.142;4.780;2023-08-06T12:58:50;6.00;;;1.40;;
15929;SDS011;8064;51.142;4.780;2023-08-06T13:01:16;6.43;;;1.40;;
15929;SDS011;8064;51.142;4.780;2023-08-06T13:03:42;4.07;;;1.07;;
15929;SDS011;8064;51.142;4.780;2023-08-06T13:06:08;3.23;;;1.17;;
15929;SDS011;8064;51.142;4.780;2023-08-06T13:08:34;3.33;;;1.03;;
15929;SDS011;8064;51.142;4.780;2023-08-06T13:11:01;3.83;;;1.00;;
15929;SDS011;8064;51.142;4.780;2023-08-06T13:13:27;4.20;;;1.03;;
15929;SDS011;8064;51.142;4.780;2023-08-06T13:15:52;3.27;;;0.87;;
15929;SDS011;8064;51.142;4.780;2023-08-06T13:18:18;3.23;;;1.20;;
15929;SDS011;8064;51.142;4.780;2023-08-06T13:20:44;3.57;;;1.10;;
15929;SDS011;8064;51.142;4.780;2023-08-06T13:23:12;2.87;;;0.97;;
15929;SDS011;8064;51.142;4.780;2023-08-06T13:25:40;3.30;;;1.00;;
15929;SDS011;8064;51.142;4.780;2023-08-06T13:28:06;4.67;;;1.10;;
15929;SDS011;8064;51.142;4.780;2023-08-06T13:30:32;3.27;;;0.90;;
15929;SDS011;8064;51.142;4.780;2023-08-06T13:33:00;2.80;;;1.20;;
15929;SDS011;8064;51.142;4.780;2023-08-06T13:35:26;3.23;;;0.97;;
15929;SDS011;8064;51.142;4.780;2023-08-06T13:37:52;1.27;;;0.63;;
15929;SDS011;8064;51.142;4.780;2023-08-06T13:40:19;3.63;;;0.80;;
15929;SDS011;8064;51.142;4.780;2023-08-06T13:42:45;2.87;;;0.70;;
15929;SDS011;8064;51.142;4.780;2023-08-06T13:45:11;2.40;;;0.60;;
15929;SDS011;8064;51.142;4.780;2023-08-06T13:47:37;2.60;;;0.70;;
15929;SDS011;8064;51.142;4.780;2023-08-06T13:50:02;1.93;;;0.70;;
15929;SDS011;8064;51.142;4.780;2023-08-06T13:52:28;1.47;;;0.60;;
15929;SDS011;8064;51.142;4.780;2023-08-06T13:54:54;1.93;;;0.60;;
15929;SDS011;8064;51.142;4.780;2023-08-06T13:57:20;1.57;;;0.53;;
15929;SDS011;8064;51.142;4.780;2023-08-06T13:59:45;1.10;;;0.50;;
15929;SDS011;8064;51.142;4.780;2023-08-06T14:02:11;2.30;;;0.70;;
15929;SDS011;8064;51.142;4.780;2023-08-06T14:04:37;5.60;;;0.70;;
15929;SDS011;8064;51.142;4.780;2023-08-06T14:07:04;7.33;;;1.00;;
15929;SDS011;8064;51.142;4.780;2023-08-06T14:09:30;4.23;;;1.20;;
15929;SDS011;8064;51.142;4.780;2023-08-06T14:11:56;3.50;;;1.03;;
15929;SDS011;8064;51.142;4.780;2023-08-06T14:14:22;4.70;;;0.97;;
15929;SDS011;8064;51.142;4.780;2023-08-06T14:16:51;3.10;;;1.40;;
15929;SDS011;8064;51.142;4.780;2023-08-06T14:19:17;2.93;;;0.90;;
15929;SDS011;8064;51.142;4.780;2023-08-06T14:21:43;3.77;;;1.00;;
15929;SDS011;8064;51.142;4.780;2023-08-06T14:24:09;4.07;;;1.57;;
15929;SDS011;8064;51.142;4.780;2023-08-06T14:26:35;3.30;;;0.90;;
15929;SDS011;8064;51.142;4.780;2023-08-06T14:29:01;2.83;;;0.80;;
15929;SDS011;8064;51.142;4.780;2023-08-06T14:31:27;2.23;;;0.83;;
15929;SDS011;8064;51.142;4.780;2023-08-06T14:33:52;5.97;;;1.23;;
15929;SDS011;8064;51.142;4.780;2023-08-06T14:36:18;2.57;;;1.00;;
15929;SDS011;8064;51.142;4.780;2023-08-06T14:38:44;3.83;;;1.00;;
15929;SDS011;8064;51.142;4.780;2023-08-06T14:41:10;3.87;;;1.00;;
15929;SDS011;8064;51.142;4.780;2023-08-06T14:43:36;4.27;;;1.30;;
15929;SDS011;8064;51.142;4.780;2023-08-06T14:46:02;4.10;;;1.20;;
15929;SDS011;8064;51.142;4.780;2023-08-06T14:48:28;3.53;;;1.20;;
15929;SDS011;8064;51.142;4.780;2023-08-06T14:50:55;5.63;;;1.50;;
15929;SDS011;8064;51.142;4.780;2023-08-06T14:53:21;2.80;;;0.90;;
15929;SDS011;8064;51.142;4.780;2023-08-06T14:55:47;5.83;;;1.13;;
15929;SDS011;8064;51.142;4.780;2023-08-06T14:58:14;4.83;;;1.00;;
15929;SDS011;8064;51.142;4.780;2023-08-06T15:00:40;3.80;;;1.10;;
15929;SDS011;8064;51.142;4.780;2023-08-06T15:03:06;1.87;;;1.10;;
15929;SDS011;8064;51.142;4.780;2023-08-06T15:05:31;4.47;;;1.30;;
15929;SDS011;8064;51.142;4.780;2023-08-06T15:07:58;6.80;;;1.50;;
15929;SDS011;8064;51.142;4.780;2023-08-06T15:10:24;7.60;;;1.77;;
15929;SDS011;8064;51.142;4.780;2023-08-06T15:12:50;6.97;;;1.37;;
15929;SDS011;8064;51.142;4.780;2023-08-06T15:15:16;4.13;;;1.30;;
15929;SDS011;8064;51.142;4.780;2023-08-06T15:17:42;7.83;;;1.83;;
15929;SDS011;8064;51.142;4.780;2023-08-06T15:20:08;4.83;;;1.40;;
15929;SDS011;8064;51.142;4.780;2023-08-06T15:22:34;6.30;;;1.33;;